sensor_id;sensor_type;location;lat;lon;timestamp;P1;durP1;ratioP1;P2;durP2;ratioP2
13421;SDS011;6782;55.904;13.396;2023-02-17T00:00:56;138.73;;;74.67;;
13421;SDS011;6782;55.904;13.396;2023-02-17T00:03:44;157.90;;;75.10;;
13421;SDS011;6782;55.904;13.396;2023-02-17T00:06:33;167.20;;;79.43;;
13421;SDS011;6782;55.904;13.396;2023-02-17T00:09:21;152.63;;;74.93;;
13421;SDS011;6782;55.904;13.396;2023-02-17T00:12:08;134.03;;;68.27;;
13421;SDS011;6782;55.904;13.396;2023-02-17T00:14:55;149.43;;;72.37;;
13421;SDS011;6782;55.904;13.396;2023-02-17T00:17:42;144.67;;;71.87;;
13421;SDS011;6782;55.904;13.396;2023-02-17T00:20:29;137.40;;;69.63;;
13421;SDS011;6782;55.904;13.396;2023-02-17T00:23:18;137.53;;;66.40;;
13421;SDS011;6782;55.904;13.396;2023-02-17T00:26:06;135.47;;;65.93;;
13421;SDS011;6782;55.904;13.396;2023-02-17T00:28:53;128.90;;;64.43;;
13421;SDS011;6782;55.904;13.396;2023-02-17T00:31:40;120.33;;;60.97;;
13421;SDS011;6782;55.904;13.396;2023-02-17T00:34:28;124.53;;;58.47;;
13421;SDS011;6782;55.904;13.396;2023-02-17T00:37:15;122.80;;;58.97;;
13421;SDS011;6782;55.904;13.396;2023-02-17T00:40:04;117.93;;;57.53;;
13421;SDS011;6782;55.904;13.396;2023-02-17T00:42:52;118.67;;;57.53;;
13421;SDS011;6782;55.904;13.396;2023-02-17T00:45:40;111.80;;;58.20;;
13421;SDS011;6782;55.904;13.396;2023-02-17T00:48:27;125.90;;;61.67;;
13421;SDS011;6782;55.904;13.396;2023-02-17T00:51:15;128.77;;;61.67;;
13421;SDS011;6782;55.904;13.396;2023-02-17T00:54:03;117.57;;;58.57;;
13421;SDS011;6782;55.904;13.396;2023-02-17T00:56:52;115.27;;;59.73;;
13421;SDS011;6782;55.904;13.396;2023-02-17T00:59:39;109.47;;;56.47;;
13421;SDS011;6782;55.904;13.396;2023-02-17T01:02:27;114.30;;;58.70;;
13421;SDS011;6782;55.904;13.396;2023-02-17T01:05:14;127.77;;;61.20;;
13421;SDS011;6782;55.904;13.396;2023-02-17T01:08:01;125.70;;;61.13;;
13421;SDS011;6782;55.904;13.396;2023-02-17T01:10:48;117.10;;;59.63;;
13421;SDS011;6782;55.904;13.396;2023-02-17T01:13:37;131.17;;;59.60;;
13421;SDS011;6782;55.904;13.396;2023-02-17T01:16:25;113.03;;;57.27;;
13421;SDS011;6782;55.904;13.396;2023-02-17T01:19:15;132.97;;;63.03;;
13421;SDS011;6782;55.904;13.396;2023-02-17T01:22:04;122.23;;;61.37;;
13421;SDS011;6782;55.904;13.396;2023-02-17T01:24:51;136.57;;;65.30;;
13421;SDS011;6782;55.904;13.396;2023-02-17T01:27:39;132.77;;;63.13;;
13421;SDS011;6782;55.904;13.396;2023-02-17T01:30:27;128.33;;;63.83;;
13421;SDS011;6782;55.904;13.396;2023-02-17T01:33:15;140.00;;;64.03;;
13421;SDS011;6782;55.904;13.396;2023-02-17T01:36:02;129.47;;;65.97;;
13421;SDS011;6782;55.904;13.396;2023-02-17T01:38:50;153.20;;;69.90;;
13421;SDS011;6782;55.904;13.396;2023-02-17T01:41:38;146.63;;;69.40;;
13421;SDS011;6782;55.904;13.396;2023-02-17T01:44:25;140.13;;;68.73;;
13421;SDS011;6782;55.904;13.396;2023-02-17T01:47:14;145.20;;;68.97;;
13421;SDS011;6782;55.904;13.396;2023-02-17T01:50:01;133.23;;;62.90;;
13421;SDS011;6782;55.904;13.396;2023-02-17T01:52:49;136.13;;;67.40;;
13421;SDS011;6782;55.904;13.396;2023-02-17T01:55:39;136.53;;;66.70;;
13421;SDS011;6782;55.904;13.396;2023-02-17T01:58:28;141.23;;;66.40;;
13421;SDS011;6782;55.904;13.396;2023-02-17T02:01:18;138.17;;;66.30;;
13421;SDS011;6782;55.904;13.396;2023-02-17T02:04:07;137.83;;;67.40;;
13421;SDS011;6782;55.904;13.396;2023-02-17T02:06:55;147.50;;;67.33;;
13421;SDS011;6782;55.904;13.396;2023-02-17T02:09:45;140.23;;;67.03;;
13421;SDS011;6782;55.904;13.396;2023-02-17T02:12:37;139.70;;;65.87;;
13421;SDS011;6782;55.904;13.396;2023-02-17T02:15:28;164.83;;;72.27;;
13421;SDS011;6782;55.904;13.396;2023-02-17T02:18:24;165.10;;;74.13;;
13421;SDS011;6782;55.904;13.396;2023-02-17T02:24:44;174.33;;;78.60;;
13421;SDS011;6782;55.904;13.396;2023-02-17T02:27:44;153.87;;;75.20;;
13421;SDS011;6782;55.904;13.396;2023-02-17T02:30:53;153.47;;;76.10;;
13421;SDS011;6782;55.904;13.396;2023-02-17T02:33:52;157.60;;;77.37;;
13421;SDS011;6782;55.904;13.396;2023-02-17T02:36:45;174.87;;;79.83;;
13421;SDS011;6782;55.904;13.396;2023-02-17T02:39:37;159.20;;;76.07;;
13421;SDS011;6782;55.904;13.396;2023-02-17T02:42:28;235.43;;;90.90;;
13421;SDS011;6782;55.904;13.396;2023-02-17T02:45:16;222.07;;;87.77;;
13421;SDS011;6782;55.904;13.396;2023-02-17T02:48:04;193.77;;;85.20;;
13421;SDS011;6782;55.904;13.396;2023-02-17T02:54:40;186.97;;;85.37;;
13421;SDS011;6782;55.904;13.396;2023-02-17T02:57:36;195.00;;;86.13;;
13421;SDS011;6782;55.904;13.396;2023-02-17T03:00:34;183.93;;;85.50;;
13421;SDS011;6782;55.904;13.396;2023-02-17T03:03:28;239.67;;;93.33;;
13421;SDS011;6782;55.904;13.396;2023-02-17T03:06:23;217.10;;;91.90;;
13421;SDS011;6782;55.904;13.396;2023-02-17T03:09:16;218.67;;;90.57;;
13421;SDS011;6782;55.904;13.396;2023-02-17T03:12:08;284.10;;;101.83;;
13421;SDS011;6782;55.904;13.396;2023-02-17T03:14:57;283.27;;;101.47;;
13421;SDS011;6782;55.904;13.396;2023-02-17T03:17:47;182.43;;;87.40;;
13421;SDS011;6782;55.904;13.396;2023-02-17T03:20:35;233.87;;;94.90;;
13421;SDS011;6782;55.904;13.396;2023-02-17T03:23:24;165.83;;;82.67;;
13421;SDS011;6782;55.904;13.396;2023-02-17T03:26:11;157.10;;;83.70;;
13421;SDS011;6782;55.904;13.396;2023-02-17T03:29:00;179.07;;;85.23;;
13421;SDS011;6782;55.904;13.396;2023-02-17T03:31:47;130.50;;;79.97;;
13421;SDS011;6782;55.904;13.396;2023-02-17T03:34:34;128.60;;;73.43;;
13421;SDS011;6782;55.904;13.396;2023-02-17T03:37:21;119.93;;;72.27;;
13421;SDS011;6782;55.904;13.396;2023-02-17T03:40:09;116.93;;;70.53;;
13421;SDS011;6782;55.904;13.396;2023-02-17T03:42:56;112.47;;;68.47;;
13421;SDS011;6782;55.904;13.396;2023-02-17T03:45:45;100.87;;;63.67;;
13421;SDS011;6782;55.904;13.396;2023-02-17T03:48:33;93.43;;;63.50;;
13421;SDS011;6782;55.904;13.396;2023-02-17T03:51:21;92.03;;;62.77;;
13421;SDS011;6782;55.904;13.396;2023-02-17T03:54:09;84.37;;;61.10;;
13421;SDS011;6782;55.904;13.396;2023-02-17T03:56:56;81.93;;;59.23;;
13421;SDS011;6782;55.904;13.396;2023-02-17T03:59:43;77.27;;;58.17;;
13421;SDS011;6782;55.904;13.396;2023-02-17T04:02:32;76.37;;;56.77;;
13421;SDS011;6782;55.904;13.396;2023-02-17T04:05:19;85.60;;;58.00;;
13421;SDS011;6782;55.904;13.396;2023-02-17T04:08:06;75.93;;;57.33;;
13421;SDS011;6782;55.904;13.396;2023-02-17T04:10:54;76.43;;;55.47;;
13421;SDS011;6782;55.904;13.396;2023-02-17T04:13:42;73.40;;;55.43;;
13421;SDS011;6782;55.904;13.396;2023-02-17T04:16:29;81.03;;;57.63;;
13421;SDS011;6782;55.904;13.396;2023-02-17T04:19:17;77.63;;;55.83;;
13421;SDS011;6782;55.904;13.396;2023-02-17T04:22:05;78.13;;;58.20;;
13421;SDS011;6782;55.904;13.396;2023-02-17T04:24:53;73.30;;;56.00;;
13421;SDS011;6782;55.904;13.396;2023-02-17T04:27:40;78.57;;;55.13;;
13421;SDS011;6782;55.904;13.396;2023-02-17T04:30:27;70.57;;;53.90;;
13421;SDS011;6782;55.904;13.396;2023-02-17T04:33:14;73.53;;;53.53;;
13421;SDS011;6782;55.904;13.396;2023-02-17T04:36:03;61.57;;;49.40;;
13421;SDS011;6782;55.904;13.396;2023-02-17T04:38:51;58.43;;;48.90;;
13421;SDS011;6782;55.904;13.396;2023-02-17T04:41:38;58.00;;;48.30;;
13421;SDS011;6782;55.904;13.396;2023-02-17T04:44:25;55.80;;;46.10;;
13421;SDS011;6782;55.904;13.396;2023-02-17T04:47:12;57.70;;;46.60;;
13421;SDS011;6782;55.904;13.396;2023-02-17T04:49:59;55.27;;;45.40;;
13421;SDS011;6782;55.904;13.396;2023-02-17T04:52:48;56.07;;;46.23;;
13421;SDS011;6782;55.904;13.396;2023-02-17T04:55:35;60.13;;;45.53;;
13421;SDS011;6782;55.904;13.396;2023-02-17T04:58:22;54.63;;;45.17;;
13421;SDS011;6782;55.904;13.396;2023-02-17T05:01:09;52.57;;;43.77;;
13421;SDS011;6782;55.904;13.396;2023-02-17T05:03:57;46.40;;;41.27;;
13421;SDS011;6782;55.904;13.396;2023-02-17T05:06:44;46.27;;;41.20;;
13421;SDS011;6782;55.904;13.396;2023-02-17T05:09:33;55.53;;;46.43;;
13421;SDS011;6782;55.904;13.396;2023-02-17T05:12:21;50.10;;;43.87;;
13421;SDS011;6782;55.904;13.396;2023-02-17T05:15:09;47.70;;;42.60;;
13421;SDS011;6782;55.904;13.396;2023-02-17T05:17:56;50.93;;;42.87;;
13421;SDS011;6782;55.904;13.396;2023-02-17T05:20:44;45.97;;;40.97;;
13421;SDS011;6782;55.904;13.396;2023-02-17T05:23:31;49.77;;;43.07;;
13421;SDS011;6782;55.904;13.396;2023-02-17T05:26:20;46.10;;;41.27;;
13421;SDS011;6782;55.904;13.396;2023-02-17T05:29:07;47.13;;;42.03;;
13421;SDS011;6782;55.904;13.396;2023-02-17T05:31:55;45.37;;;40.43;;
13421;SDS011;6782;55.904;13.396;2023-02-17T05:34:42;48.73;;;42.80;;
13421;SDS011;6782;55.904;13.396;2023-02-17T05:37:29;42.73;;;38.20;;
13421;SDS011;6782;55.904;13.396;2023-02-17T05:40:16;49.93;;;43.00;;
13421;SDS011;6782;55.904;13.396;2023-02-17T05:43:05;49.17;;;42.93;;
13421;SDS011;6782;55.904;13.396;2023-02-17T05:45:53;46.87;;;41.63;;
13421;SDS011;6782;55.904;13.396;2023-02-17T05:48:40;49.37;;;42.30;;
13421;SDS011;6782;55.904;13.396;2023-02-17T05:51:28;45.97;;;41.00;;
13421;SDS011;6782;55.904;13.396;2023-02-17T05:54:15;47.20;;;41.97;;
13421;SDS011;6782;55.904;13.396;2023-02-17T05:57:03;43.40;;;38.83;;
13421;SDS011;6782;55.904;13.396;2023-02-17T05:59:52;49.00;;;41.57;;
13421;SDS011;6782;55.904;13.396;2023-02-17T06:02:40;45.57;;;39.90;;
13421;SDS011;6782;55.904;13.396;2023-02-17T06:05:27;49.33;;;42.13;;
13421;SDS011;6782;55.904;13.396;2023-02-17T06:08:14;46.03;;;40.47;;
13421;SDS011;6782;55.904;13.396;2023-02-17T06:11:01;46.27;;;41.40;;
13421;SDS011;6782;55.904;13.396;2023-02-17T06:13:49;43.03;;;38.53;;
13421;SDS011;6782;55.904;13.396;2023-02-17T06:16:37;53.30;;;43.97;;
13421;SDS011;6782;55.904;13.396;2023-02-17T06:19:25;46.23;;;41.23;;
13421;SDS011;6782;55.904;13.396;2023-02-17T06:22:12;46.97;;;41.90;;
13421;SDS011;6782;55.904;13.396;2023-02-17T06:24:59;46.87;;;41.47;;
13421;SDS011;6782;55.904;13.396;2023-02-17T06:27:46;45.47;;;40.70;;
13421;SDS011;6782;55.904;13.396;2023-02-17T06:30:34;44.67;;;39.60;;
13421;SDS011;6782;55.904;13.396;2023-02-17T06:33:22;55.53;;;46.43;;
13421;SDS011;6782;55.904;13.396;2023-02-17T06:36:09;51.07;;;45.20;;
13421;SDS011;6782;55.904;13.396;2023-02-17T06:38:56;51.10;;;44.47;;
13421;SDS011;6782;55.904;13.396;2023-02-17T06:41:43;50.43;;;45.23;;
13421;SDS011;6782;55.904;13.396;2023-02-17T06:44:31;49.47;;;43.73;;
13421;SDS011;6782;55.904;13.396;2023-02-17T06:47:18;51.47;;;45.97;;
13421;SDS011;6782;55.904;13.396;2023-02-17T06:50:08;54.07;;;47.73;;
13421;SDS011;6782;55.904;13.396;2023-02-17T06:52:56;56.00;;;47.90;;
13421;SDS011;6782;55.904;13.396;2023-02-17T06:55:43;62.97;;;50.43;;
13421;SDS011;6782;55.904;13.396;2023-02-17T06:58:30;56.83;;;47.53;;
13421;SDS011;6782;55.904;13.396;2023-02-17T07:01:20;60.77;;;48.53;;
13421;SDS011;6782;55.904;13.396;2023-02-17T07:04:10;67.83;;;51.27;;
13421;SDS011;6782;55.904;13.396;2023-02-17T07:06:59;56.57;;;48.80;;
13421;SDS011;6782;55.904;13.396;2023-02-17T07:09:46;53.40;;;47.23;;
13421;SDS011;6782;55.904;13.396;2023-02-17T07:12:33;62.37;;;49.77;;
13421;SDS011;6782;55.904;13.396;2023-02-17T07:15:21;51.80;;;45.73;;
13421;SDS011;6782;55.904;13.396;2023-02-17T07:18:08;52.47;;;46.80;;
13421;SDS011;6782;55.904;13.396;2023-02-17T07:20:55;65.43;;;50.73;;
13421;SDS011;6782;55.904;13.396;2023-02-17T07:23:44;56.97;;;48.57;;
13421;SDS011;6782;55.904;13.396;2023-02-17T07:26:33;48.30;;;42.97;;
13421;SDS011;6782;55.904;13.396;2023-02-17T07:29:21;58.43;;;47.27;;
13421;SDS011;6782;55.904;13.396;2023-02-17T07:32:08;53.57;;;44.90;;
13421;SDS011;6782;55.904;13.396;2023-02-17T07:34:55;50.50;;;42.40;;
13421;SDS011;6782;55.904;13.396;2023-02-17T07:37:42;48.67;;;41.47;;
13421;SDS011;6782;55.904;13.396;2023-02-17T07:40:31;43.53;;;38.33;;
13421;SDS011;6782;55.904;13.396;2023-02-17T07:43:19;49.03;;;40.23;;
13421;SDS011;6782;55.904;13.396;2023-02-17T07:46:07;41.80;;;37.27;;
13421;SDS011;6782;55.904;13.396;2023-02-17T07:48:55;42.40;;;36.23;;
13421;SDS011;6782;55.904;13.396;2023-02-17T07:51:44;44.30;;;38.47;;
13421;SDS011;6782;55.904;13.396;2023-02-17T07:54:31;38.70;;;34.47;;
13421;SDS011;6782;55.904;13.396;2023-02-17T07:57:21;39.90;;;33.80;;
13421;SDS011;6782;55.904;13.396;2023-02-17T08:00:09;37.57;;;33.53;;
13421;SDS011;6782;55.904;13.396;2023-02-17T08:02:57;41.67;;;35.27;;
13421;SDS011;6782;55.904;13.396;2023-02-17T08:05:45;39.23;;;34.93;;
13421;SDS011;6782;55.904;13.396;2023-02-17T08:08:35;38.77;;;32.37;;
13421;SDS011;6782;55.904;13.396;2023-02-17T08:11:40;40.80;;;32.47;;
13421;SDS011;6782;55.904;13.396;2023-02-17T08:14:46;35.20;;;31.07;;
13421;SDS011;6782;55.904;13.396;2023-02-17T08:17:33;33.03;;;29.43;;
13421;SDS011;6782;55.904;13.396;2023-02-17T08:20:21;34.53;;;28.67;;
13421;SDS011;6782;55.904;13.396;2023-02-17T08:23:08;30.97;;;26.37;;
13421;SDS011;6782;55.904;13.396;2023-02-17T08:25:56;37.23;;;29.87;;
13421;SDS011;6782;55.904;13.396;2023-02-17T08:28:43;30.33;;;26.30;;
13421;SDS011;6782;55.904;13.396;2023-02-17T08:31:33;28.93;;;24.40;;
13421;SDS011;6782;55.904;13.396;2023-02-17T08:34:21;25.13;;;22.10;;
13421;SDS011;6782;55.904;13.396;2023-02-17T08:37:09;26.90;;;23.37;;
13421;SDS011;6782;55.904;13.396;2023-02-17T08:39:57;26.80;;;23.63;;
13421;SDS011;6782;55.904;13.396;2023-02-17T08:42:44;24.70;;;21.57;;
13421;SDS011;6782;55.904;13.396;2023-02-17T08:45:31;25.43;;;22.73;;
13421;SDS011;6782;55.904;13.396;2023-02-17T08:48:20;23.80;;;20.53;;
13421;SDS011;6782;55.904;13.396;2023-02-17T08:51:07;24.23;;;20.20;;
13421;SDS011;6782;55.904;13.396;2023-02-17T08:53:58;24.00;;;20.37;;
13421;SDS011;6782;55.904;13.396;2023-02-17T08:56:46;21.40;;;18.37;;
13421;SDS011;6782;55.904;13.396;2023-02-17T08:59:33;18.40;;;16.47;;
13421;SDS011;6782;55.904;13.396;2023-02-17T09:02:20;18.53;;;16.63;;
13421;SDS011;6782;55.904;13.396;2023-02-17T09:05:08;17.33;;;15.13;;
13421;SDS011;6782;55.904;13.396;2023-02-17T09:07:56;17.67;;;15.57;;
13421;SDS011;6782;55.904;13.396;2023-02-17T09:10:43;17.13;;;14.90;;
13421;SDS011;6782;55.904;13.396;2023-02-17T09:13:30;17.70;;;15.13;;
13421;SDS011;6782;55.904;13.396;2023-02-17T09:16:17;16.00;;;14.30;;
13421;SDS011;6782;55.904;13.396;2023-02-17T09:19:06;16.23;;;14.53;;
13421;SDS011;6782;55.904;13.396;2023-02-17T09:21:54;15.30;;;13.17;;
13421;SDS011;6782;55.904;13.396;2023-02-17T09:24:41;15.10;;;13.50;;
13421;SDS011;6782;55.904;13.396;2023-02-17T09:27:29;16.60;;;14.10;;
13421;SDS011;6782;55.904;13.396;2023-02-17T09:30:16;16.07;;;14.37;;
13421;SDS011;6782;55.904;13.396;2023-02-17T09:33:03;15.80;;;14.10;;
13421;SDS011;6782;55.904;13.396;2023-02-17T09:35:51;14.90;;;13.30;;
13421;SDS011;6782;55.904;13.396;2023-02-17T09:38:40;13.43;;;12.03;;
13421;SDS011;6782;55.904;13.396;2023-02-17T09:41:29;14.53;;;12.57;;
13421;SDS011;6782;55.904;13.396;2023-02-17T09:44:23;13.43;;;11.60;;
13421;SDS011;6782;55.904;13.396;2023-02-17T09:47:13;12.27;;;10.97;;
13421;SDS011;6782;55.904;13.396;2023-02-17T09:50:05;11.60;;;10.30;;
13421;SDS011;6782;55.904;13.396;2023-02-17T09:52:54;11.83;;;10.50;;
13421;SDS011;6782;55.904;13.396;2023-02-17T09:55:47;11.90;;;9.47;;
13421;SDS011;6782;55.904;13.396;2023-02-17T09:58:39;9.30;;;8.30;;
13421;SDS011;6782;55.904;13.396;2023-02-17T10:01:29;10.30;;;9.00;;
13421;SDS011;6782;55.904;13.396;2023-02-17T10:04:19;9.57;;;8.33;;
13421;SDS011;6782;55.904;13.396;2023-02-17T10:07:10;8.20;;;7.40;;
13421;SDS011;6782;55.904;13.396;2023-02-17T10:10:04;9.13;;;7.33;;
13421;SDS011;6782;55.904;13.396;2023-02-17T10:12:57;8.03;;;7.13;;
13421;SDS011;6782;55.904;13.396;2023-02-17T10:15:48;8.10;;;7.00;;
13421;SDS011;6782;55.904;13.396;2023-02-17T10:18:39;7.77;;;6.57;;
13421;SDS011;6782;55.904;13.396;2023-02-17T10:21:31;7.43;;;6.13;;
13421;SDS011;6782;55.904;13.396;2023-02-17T10:24:23;6.90;;;6.17;;
13421;SDS011;6782;55.904;13.396;2023-02-17T10:27:18;6.67;;;5.90;;
13421;SDS011;6782;55.904;13.396;2023-02-17T10:30:22;6.30;;;5.70;;
13421;SDS011;6782;55.904;13.396;2023-02-17T10:33:18;6.17;;;5.57;;
13421;SDS011;6782;55.904;13.396;2023-02-17T10:36:10;7.50;;;5.60;;
13421;SDS011;6782;55.904;13.396;2023-02-17T10:39:03;5.33;;;4.77;;
13421;SDS011;6782;55.904;13.396;2023-02-17T10:41:56;4.90;;;4.47;;
13421;SDS011;6782;55.904;13.396;2023-02-17T10:44:43;5.33;;;4.57;;
13421;SDS011;6782;55.904;13.396;2023-02-17T10:47:31;5.20;;;4.70;;
13421;SDS011;6782;55.904;13.396;2023-02-17T10:50:22;5.13;;;4.40;;
13421;SDS011;6782;55.904;13.396;2023-02-17T10:53:12;6.17;;;5.03;;
13421;SDS011;6782;55.904;13.396;2023-02-17T10:56:02;5.93;;;5.07;;
13421;SDS011;6782;55.904;13.396;2023-02-17T10:58:55;5.37;;;4.87;;
13421;SDS011;6782;55.904;13.396;2023-02-17T11:01:49;5.83;;;5.33;;
13421;SDS011;6782;55.904;13.396;2023-02-17T11:04:41;5.47;;;4.50;;
13421;SDS011;6782;55.904;13.396;2023-02-17T11:07:30;5.00;;;4.20;;
13421;SDS011;6782;55.904;13.396;2023-02-17T11:10:20;6.83;;;5.13;;
13421;SDS011;6782;55.904;13.396;2023-02-17T11:13:25;6.80;;;5.53;;
13421;SDS011;6782;55.904;13.396;2023-02-17T11:16:20;7.53;;;6.50;;
13421;SDS011;6782;55.904;13.396;2023-02-17T11:19:18;6.83;;;6.00;;
13421;SDS011;6782;55.904;13.396;2023-02-17T11:22:25;7.83;;;6.63;;
13421;SDS011;6782;55.904;13.396;2023-02-17T11:25:19;7.63;;;6.73;;
13421;SDS011;6782;55.904;13.396;2023-02-17T11:28:10;8.63;;;6.73;;
13421;SDS011;6782;55.904;13.396;2023-02-17T11:30:59;10.23;;;6.37;;
13421;SDS011;6782;55.904;13.396;2023-02-17T11:33:47;10.70;;;6.67;;
13421;SDS011;6782;55.904;13.396;2023-02-17T11:36:34;9.13;;;6.33;;
13421;SDS011;6782;55.904;13.396;2023-02-17T11:39:22;8.53;;;6.73;;
13421;SDS011;6782;55.904;13.396;2023-02-17T11:42:13;8.90;;;6.83;;
13421;SDS011;6782;55.904;13.396;2023-02-17T11:45:05;9.67;;;7.30;;
13421;SDS011;6782;55.904;13.396;2023-02-17T11:48:09;8.67;;;6.90;;
13421;SDS011;6782;55.904;13.396;2023-02-17T11:51:07;8.40;;;6.33;;
13421;SDS011;6782;55.904;13.396;2023-02-17T11:54:02;9.93;;;6.77;;
13421;SDS011;6782;55.904;13.396;2023-02-17T11:57:09;8.77;;;6.30;;
13421;SDS011;6782;55.904;13.396;2023-02-17T12:00:15;12.77;;;6.90;;
13421;SDS011;6782;55.904;13.396;2023-02-17T12:03:11;9.23;;;6.93;;
13421;SDS011;6782;55.904;13.396;2023-02-17T12:06:13;9.77;;;7.10;;
13421;SDS011;6782;55.904;13.396;2023-02-17T12:09:06;9.13;;;6.53;;
13421;SDS011;6782;55.904;13.396;2023-02-17T12:12:03;7.93;;;5.77;;
13421;SDS011;6782;55.904;13.396;2023-02-17T12:15:06;6.60;;;5.73;;
13421;SDS011;6782;55.904;13.396;2023-02-17T12:18:09;5.93;;;4.90;;
13421;SDS011;6782;55.904;13.396;2023-02-17T12:21:08;6.53;;;5.00;;
13421;SDS011;6782;55.904;13.396;2023-02-17T12:24:06;7.30;;;5.10;;
13421;SDS011;6782;55.904;13.396;2023-02-17T12:27:10;6.27;;;4.77;;
13421;SDS011;6782;55.904;13.396;2023-02-17T12:30:21;7.93;;;5.40;;
13421;SDS011;6782;55.904;13.396;2023-02-17T12:33:25;5.43;;;4.30;;
13421;SDS011;6782;55.904;13.396;2023-02-17T12:36:26;5.00;;;4.43;;
13421;SDS011;6782;55.904;13.396;2023-02-17T12:39:17;5.03;;;4.50;;
13421;SDS011;6782;55.904;13.396;2023-02-17T12:42:11;6.20;;;5.23;;
13421;SDS011;6782;55.904;13.396;2023-02-17T12:45:03;6.40;;;5.80;;
13421;SDS011;6782;55.904;13.396;2023-02-17T12:47:53;5.83;;;5.17;;
13421;SDS011;6782;55.904;13.396;2023-02-17T12:50:48;8.10;;;5.40;;
13421;SDS011;6782;55.904;13.396;2023-02-17T12:53:42;6.57;;;5.93;;
13421;SDS011;6782;55.904;13.396;2023-02-17T12:56:47;6.57;;;5.70;;
13421;SDS011;6782;55.904;13.396;2023-02-17T12:59:43;5.90;;;5.27;;
13421;SDS011;6782;55.904;13.396;2023-02-17T13:02:32;6.20;;;5.57;;
13421;SDS011;6782;55.904;13.396;2023-02-17T13:05:21;5.70;;;5.03;;
13421;SDS011;6782;55.904;13.396;2023-02-17T13:08:13;5.60;;;5.10;;
13421;SDS011;6782;55.904;13.396;2023-02-17T13:11:05;5.77;;;5.13;;
13421;SDS011;6782;55.904;13.396;2023-02-17T13:13:54;6.30;;;5.27;;
13421;SDS011;6782;55.904;13.396;2023-02-17T13:16:44;6.03;;;5.43;;
13421;SDS011;6782;55.904;13.396;2023-02-17T13:19:33;6.30;;;5.00;;
13421;SDS011;6782;55.904;13.396;2023-02-17T13:22:21;7.23;;;4.97;;
13421;SDS011;6782;55.904;13.396;2023-02-17T13:25:09;4.70;;;4.30;;
13421;SDS011;6782;55.904;13.396;2023-02-17T13:27:58;5.13;;;4.57;;
13421;SDS011;6782;55.904;13.396;2023-02-17T13:30:47;5.50;;;4.63;;
13421;SDS011;6782;55.904;13.396;2023-02-17T13:33:42;5.40;;;4.33;;
13421;SDS011;6782;55.904;13.396;2023-02-17T13:36:34;9.07;;;5.57;;
13421;SDS011;6782;55.904;13.396;2023-02-17T13:39:30;7.50;;;5.53;;
13421;SDS011;6782;55.904;13.396;2023-02-17T13:42:32;7.50;;;5.30;;
13421;SDS011;6782;55.904;13.396;2023-02-17T13:45:23;7.03;;;5.10;;
13421;SDS011;6782;55.904;13.396;2023-02-17T13:48:12;10.20;;;6.07;;
13421;SDS011;6782;55.904;13.396;2023-02-17T13:51:22;9.90;;;5.67;;
13421;SDS011;6782;55.904;13.396;2023-02-17T13:54:12;11.10;;;5.90;;
13421;SDS011;6782;55.904;13.396;2023-02-17T13:57:05;8.67;;;5.23;;
13421;SDS011;6782;55.904;13.396;2023-02-17T14:00:09;8.73;;;6.20;;
13421;SDS011;6782;55.904;13.396;2023-02-17T14:03:11;11.23;;;6.37;;
13421;SDS011;6782;55.904;13.396;2023-02-17T14:06:05;9.43;;;6.50;;
13421;SDS011;6782;55.904;13.396;2023-02-17T14:08:59;11.50;;;7.23;;
13421;SDS011;6782;55.904;13.396;2023-02-17T14:11:57;12.17;;;6.80;;
13421;SDS011;6782;55.904;13.396;2023-02-17T14:14:47;14.53;;;6.07;;
13421;SDS011;6782;55.904;13.396;2023-02-17T14:17:35;13.80;;;7.33;;
13421;SDS011;6782;55.904;13.396;2023-02-17T14:20:26;14.63;;;7.40;;
13421;SDS011;6782;55.904;13.396;2023-02-17T14:23:16;12.33;;;6.60;;
13421;SDS011;6782;55.904;13.396;2023-02-17T14:26:09;15.73;;;7.47;;
13421;SDS011;6782;55.904;13.396;2023-02-17T14:28:59;13.37;;;7.47;;
13421;SDS011;6782;55.904;13.396;2023-02-17T14:31:48;14.77;;;6.77;;
13421;SDS011;6782;55.904;13.396;2023-02-17T14:34:37;16.17;;;5.97;;
13421;SDS011;6782;55.904;13.396;2023-02-17T14:37:24;12.23;;;6.40;;
13421;SDS011;6782;55.904;13.396;2023-02-17T14:40:14;20.07;;;7.23;;
13421;SDS011;6782;55.904;13.396;2023-02-17T14:43:04;17.97;;;6.50;;
13421;SDS011;6782;55.904;13.396;2023-02-17T14:45:52;16.00;;;6.60;;
13421;SDS011;6782;55.904;13.396;2023-02-17T14:48:39;16.37;;;6.73;;
13421;SDS011;6782;55.904;13.396;2023-02-17T14:51:30;20.87;;;7.23;;
13421;SDS011;6782;55.904;13.396;2023-02-17T14:54:19;18.03;;;6.60;;
13421;SDS011;6782;55.904;13.396;2023-02-17T14:57:10;17.80;;;6.67;;
13421;SDS011;6782;55.904;13.396;2023-02-17T15:00:00;25.97;;;7.50;;
13421;SDS011;6782;55.904;13.396;2023-02-17T15:02:48;18.97;;;6.20;;
13421;SDS011;6782;55.904;13.396;2023-02-17T15:05:37;20.33;;;6.77;;
13421;SDS011;6782;55.904;13.396;2023-02-17T15:08:32;23.33;;;6.53;;
13421;SDS011;6782;55.904;13.396;2023-02-17T15:11:23;20.40;;;6.37;;
13421;SDS011;6782;55.904;13.396;2023-02-17T15:14:15;17.73;;;5.40;;
13421;SDS011;6782;55.904;13.396;2023-02-17T15:17:05;21.37;;;6.30;;
13421;SDS011;6782;55.904;13.396;2023-02-17T15:19:52;22.43;;;6.20;;
13421;SDS011;6782;55.904;13.396;2023-02-17T15:22:39;19.63;;;5.57;;
13421;SDS011;6782;55.904;13.396;2023-02-17T15:25:29;16.13;;;5.60;;
13421;SDS011;6782;55.904;13.396;2023-02-17T15:28:19;16.47;;;6.03;;
13421;SDS011;6782;55.904;13.396;2023-02-17T15:31:08;16.97;;;5.10;;
13421;SDS011;6782;55.904;13.396;2023-02-17T15:34:08;19.67;;;6.37;;
13421;SDS011;6782;55.904;13.396;2023-02-17T15:37:15;14.73;;;4.47;;
13421;SDS011;6782;55.904;13.396;2023-02-17T15:40:04;17.33;;;4.33;;
13421;SDS011;6782;55.904;13.396;2023-02-17T15:42:52;16.20;;;4.17;;
13421;SDS011;6782;55.904;13.396;2023-02-17T15:45:41;18.43;;;4.70;;
13421;SDS011;6782;55.904;13.396;2023-02-17T15:48:29;12.47;;;4.77;;
13421;SDS011;6782;55.904;13.396;2023-02-17T15:51:20;19.17;;;5.47;;
13421;SDS011;6782;55.904;13.396;2023-02-17T15:54:09;15.93;;;4.77;;
13421;SDS011;6782;55.904;13.396;2023-02-17T15:56:57;13.93;;;4.13;;
13421;SDS011;6782;55.904;13.396;2023-02-17T15:59:46;14.37;;;5.03;;
13421;SDS011;6782;55.904;13.396;2023-02-17T16:02:34;14.03;;;4.90;;
13421;SDS011;6782;55.904;13.396;2023-02-17T16:05:22;16.90;;;4.93;;
13421;SDS011;6782;55.904;13.396;2023-02-17T16:08:13;14.40;;;4.60;;
13421;SDS011;6782;55.904;13.396;2023-02-17T16:11:00;15.23;;;4.03;;
13421;SDS011;6782;55.904;13.396;2023-02-17T16:13:48;15.30;;;4.10;;
13421;SDS011;6782;55.904;13.396;2023-02-17T16:16:35;13.87;;;3.63;;
13421;SDS011;6782;55.904;13.396;2023-02-17T16:19:23;15.80;;;4.67;;
13421;SDS011;6782;55.904;13.396;2023-02-17T16:22:11;18.60;;;4.30;;
13421;SDS011;6782;55.904;13.396;2023-02-17T16:25:00;17.63;;;4.63;;
13421;SDS011;6782;55.904;13.396;2023-02-17T16:27:48;15.03;;;4.87;;
13421;SDS011;6782;55.904;13.396;2023-02-17T16:30:36;19.83;;;4.50;;
13421;SDS011;6782;55.904;13.396;2023-02-17T16:33:23;16.23;;;5.20;;
13421;SDS011;6782;55.904;13.396;2023-02-17T16:35:51;15.80;;;4.63;;
13421;SDS011;6782;55.904;13.396;2023-02-17T16:38:19;19.20;;;4.70;;
13421;SDS011;6782;55.904;13.396;2023-02-17T16:40:50;16.83;;;4.90;;
13421;SDS011;6782;55.904;13.396;2023-02-17T16:43:19;17.83;;;5.33;;
13421;SDS011;6782;55.904;13.396;2023-02-17T16:45:49;17.00;;;4.93;;